Time;durP1;ratioP1;P1;durP2;ratioP2;P2;SDS_P1;SDS_P2;PMS_P1;PMS_P2;Temp;Humidity;BMP_temperature;BMP_pressure;BME280_temperature;BME280_humidity;BME280_pressure;Samples;Min_cycle;Max_cycle;Signal;HPM_P1;HPM_P2
2023/10/23 00:01:36;;;;;;;1.37;1.37;;;19.70;76.30;;;;;;5109251;27;43446;-69
2023/10/23 00:04:04;;;;;;;1.60;1.60;;;19.90;75.80;;;;;;5107809;27;45454;-69
2023/10/23 00:06:34;;;;;;;1.60;1.60;;;20.00;75.30;;;;;;5109437;27;44006;-69
2023/10/23 00:09:02;;;;;;;1.50;1.50;;;20.00;74.90;;;;;;5109427;27;43406;-69
2023/10/23 00:11:31;;;;;;;1.70;1.70;;;20.00;74.80;;;;;;5107851;27;43437;-69
2023/10/23 00:13:59;;;;;;;1.60;1.60;;;20.00;75.60;;;;;;5107917;27;45999;-69
2023/10/23 00:16:27;;;;;;;1.53;1.53;;;19.90;75.00;;;;;;5109493;27;43469;-69
2023/10/23 00:18:55;;;;;;;1.60;1.60;;;19.80;76.20;;;;;;5109243;27;43427;-69
2023/10/23 00:21:23;;;;;;;1.50;1.50;;;19.80;75.80;;;;;;5109499;27;43362;-69
2023/10/23 00:23:53;;;;;;;1.53;1.53;;;19.80;75.70;;;;;;5109162;27;43605;-69
2023/10/23 00:26:21;;;;;;;1.23;1.23;;;19.70;75.60;;;;;;5110057;27;43412;-69
2023/10/23 00:28:53;;;;;;;1.80;1.80;;;19.70;75.70;;;;;;5109886;27;43872;-69
2023/10/23 00:31:21;;;;;;;1.40;1.40;;;19.70;76.20;;;;;;5110764;27;43469;-69
2023/10/23 00:33:49;;;;;;;1.33;1.33;;;19.70;76.40;;;;;;5108823;27;45828;-69
2023/10/23 00:36:17;;;;;;;1.50;1.50;;;19.60;76.10;;;;;;5108708;27;43500;-69
2023/10/23 00:38:45;;;;;;;1.40;1.40;;;19.60;76.00;;;;;;5107670;27;43974;-69
2023/10/23 00:41:15;;;;;;;1.33;1.33;;;19.60;76.00;;;;;;5107769;27;43406;-69
2023/10/23 00:43:43;;;;;;;1.30;1.30;;;19.60;76.10;;;;;;5107496;27;45806;-69
2023/10/23 00:46:12;;;;;;;1.40;1.40;;;19.60;76.70;;;;;;5106493;27;44681;-69
2023/10/23 00:48:40;;;;;;;1.30;1.30;;;19.60;76.50;;;;;;5106689;27;43460;-69
2023/10/23 00:51:10;;;;;;;1.60;1.60;;;19.70;76.00;;;;;;5107847;27;43448;-69
2023/10/23 00:53:39;;;;;;;1.43;1.43;;;19.90;75.60;;;;;;5106883;27;45384;-69
2023/10/23 00:56:07;;;;;;;1.60;1.60;;;20.00;75.20;;;;;;5107203;27;43798;-69
2023/10/23 00:58:38;;;;;;;1.60;1.60;;;20.00;75.00;;;;;;5106915;27;43949;-69
2023/10/23 01:01:06;;;;;;;1.30;1.30;;;20.00;75.00;;;;;;5107581;27;43397;-69
2023/10/23 01:03:35;;;;;;;1.37;1.37;;;19.90;75.10;;;;;;5100689;27;45718;-69
2023/10/23 01:06:03;;;;;;;1.50;1.50;;;19.80;75.20;;;;;;5099686;27;45105;-69
2023/10/23 01:08:31;;;;;;;1.30;1.30;;;19.80;75.90;;;;;;5121278;27;43883;-69
2023/10/23 01:10:59;;;;;;;1.60;1.60;;;19.70;75.90;;;;;;5124655;27;43645;-69
2023/10/23 01:13:29;;;;;;;1.60;1.60;;;19.70;75.70;;;;;;5108782;27;43917;-69
2023/10/23 01:15:58;;;;;;;1.37;1.37;;;19.70;75.70;;;;;;5104916;27;44694;-69
2023/10/23 01:18:26;;;;;;;1.50;1.50;;;19.60;75.80;;;;;;5129794;27;43367;-69
2023/10/23 01:20:54;;;;;;;1.20;1.20;;;19.60;76.10;;;;;;5107215;27;43420;-69
2023/10/23 01:23:24;;;;;;;1.17;1.17;;;19.60;76.50;;;;;;5107148;27;45797;-69
2023/10/23 01:25:54;;;;;;;1.30;1.30;;;19.60;76.20;;;;;;5108046;27;43331;-69
2023/10/23 01:28:22;;;;;;;1.30;1.30;;;19.60;76.10;;;;;;5106872;27;43455;-69
2023/10/23 01:30:50;;;;;;;1.30;1.30;;;19.60;76.00;;;;;;5106485;27;43954;-68
2023/10/23 01:33:18;;;;;;;1.53;1.53;;;19.60;76.10;;;;;;5106571;27;46171;-68
2023/10/23 01:35:47;;;;;;;1.30;1.30;;;19.50;76.60;;;;;;5108517;27;43406;-68
2023/10/23 01:38:15;;;;;;;1.50;1.50;;;19.50;76.50;;;;;;5102758;27;43508;-68
2023/10/23 01:40:43;;;;;;;1.50;1.50;;;19.60;76.30;;;;;;5107075;27;43839;-68
2023/10/23 01:43:13;;;;;;;1.20;1.20;;;19.60;76.20;;;;;;5106473;27;45738;-69
2023/10/23 01:45:41;;;;;;;1.30;1.30;;;19.50;76.10;;;;;;5106969;27;44703;-70
2023/10/23 01:48:09;;;;;;;1.63;1.50;;;19.50;76.30;;;;;;5107250;27;43359;-70
2023/10/23 01:50:37;;;;;;;1.20;1.20;;;19.50;76.70;;;;;;5107574;27;43450;-69
2023/10/23 01:53:08;;;;;;;1.40;1.40;;;19.60;76.50;;;;;;5107461;27;45956;-69
2023/10/23 01:55:37;;;;;;;1.40;1.40;;;19.70;76.00;;;;;;5107766;27;44904;-69
2023/10/23 01:58:05;;;;;;;1.60;1.60;;;19.80;75.40;;;;;;5107926;27;43395;-69
2023/10/23 02:00:35;;;;;;;1.50;1.50;;;20.00;75.00;;;;;;5103264;27;44023;-69
2023/10/23 02:03:04;;;;;;;1.37;1.37;;;20.00;74.90;;;;;;5107232;27;45597;-69
2023/10/23 02:05:32;;;;;;;1.17;1.17;;;20.00;74.90;;;;;;5107804;27;45443;-69
2023/10/23 02:08:00;;;;;;;1.40;1.40;;;19.90;75.00;;;;;;5108259;27;43410;-69
2023/10/23 02:10:28;;;;;;;1.30;1.30;;;19.80;75.10;;;;;;5111701;27;43566;-69
2023/10/23 02:12:56;;;;;;;1.43;1.43;;;19.70;75.70;;;;;;5111210;27;45410;-69
2023/10/23 02:15:25;;;;;;;1.40;1.40;;;19.70;75.80;;;;;;5111018;27;44962;-69
2023/10/23 02:17:54;;;;;;;1.10;1.10;;;19.70;75.70;;;;;;5112840;27;43513;-68
2023/10/23 02:20:27;;;;;;;1.33;1.33;;;19.70;75.70;;;;;;5111635;27;43579;-68
2023/10/23 02:22:55;;;;;;;1.20;1.20;;;19.60;75.80;;;;;;5110794;27;46022;-69
2023/10/23 02:25:23;;;;;;;1.33;1.33;;;19.60;76.20;;;;;;5110953;27;44396;-69
2023/10/23 02:27:53;;;;;;;1.10;1.10;;;19.60;76.40;;;;;;5111119;27;43410;-69
2023/10/23 02:30:23;;;;;;;1.20;1.20;;;19.60;76.20;;;;;;5110848;27;43533;-69
2023/10/23 02:32:51;;;;;;;1.40;1.40;;;19.60;76.10;;;;;;5110375;27;45971;-69
2023/10/23 02:35:21;;;;;;;1.40;1.40;;;19.50;76.00;;;;;;5109517;27;43381;-69
2023/10/23 02:37:49;;;;;;;1.30;1.30;;;19.50;76.20;;;;;;5110869;27;43540;-68
2023/10/23 02:40:17;;;;;;;1.13;1.13;;;19.50;76.70;;;;;;5111034;27;43425;-69
2023/10/23 02:42:45;;;;;;;1.20;1.20;;;19.50;76.40;;;;;;5110373;27;45750;-69
2023/10/23 02:45:15;;;;;;;1.43;1.43;;;19.70;76.00;;;;;;5110112;27;45405;-70
2023/10/23 02:47:43;;;;;;;1.20;1.20;;;19.80;75.40;;;;;;5111035;27;43399;-70
2023/10/23 02:50:12;;;;;;;1.43;1.43;;;19.90;75.10;;;;;;5109644;27;43391;-70
2023/10/23 02:52:41;;;;;;;1.30;1.30;;;20.00;75.00;;;;;;5109264;27;45709;-70
2023/10/23 02:55:10;;;;;;;1.20;1.20;;;19.90;74.80;;;;;;5108542;27;44984;-69
2023/10/23 02:57:38;;;;;;;1.40;1.40;;;19.90;75.00;;;;;;5110946;27;43399;-69
2023/10/23 03:00:07;;;;;;;1.47;1.47;;;19.80;75.00;;;;;;5109415;27;43695;-69
2023/10/23 03:02:37;;;;;;;1.20;1.20;;;19.70;75.60;;;;;;5108593;27;46856;-69
2023/10/23 03:05:05;;;;;;;1.20;1.20;;;19.70;75.70;;;;;;5109164;27;45722;-69
2023/10/23 03:07:33;;;;;;;1.27;1.27;;;19.70;75.70;;;;;;5110456;27;43511;-69
2023/10/23 03:10:03;;;;;;;1.20;1.20;;;19.70;75.60;;;;;;5109440;27;43513;-69
2023/10/23 03:12:31;;;;;;;1.20;1.20;;;19.60;75.60;;;;;;5108892;27;45407;-69
2023/10/23 03:14:59;;;;;;;1.30;1.30;;;19.60;76.10;;;;;;5110298;27;43920;-68
2023/10/23 03:17:27;;;;;;;1.20;1.20;;;19.50;76.20;;;;;;5108871;27;43370;-69
2023/10/23 03:19:55;;;;;;;1.30;1.30;;;19.50;75.90;;;;;;5109164;27;43942;-69
2023/10/23 03:22:23;;;;;;;1.30;1.30;;;19.50;75.80;;;;;;5110064;27;43558;-69
2023/10/23 03:24:51;;;;;;;1.27;1.27;;;19.50;75.90;;;;;;5108899;27;44660;-68
2023/10/23 03:27:21;;;;;;;1.10;1.10;;;19.50;76.40;;;;;;5108882;27;43411;-69
2023/10/23 03:29:49;;;;;;;1.20;1.20;;;19.50;76.30;;;;;;5108738;27;43453;-69
2023/10/23 03:32:17;;;;;;;1.30;1.30;;;19.60;76.00;;;;;;5108732;27;45927;-68
2023/10/23 03:34:45;;;;;;;1.10;1.10;;;19.70;75.70;;;;;;5109731;27;43437;-68
2023/10/23 03:37:14;;;;;;;1.10;1.10;;;19.70;75.50;;;;;;5109078;27;43418;-69
2023/10/23 03:39:42;;;;;;;1.07;1.07;;;19.70;75.30;;;;;;5108843;27;43544;-68
2023/10/23 03:42:11;;;;;;;1.30;1.30;;;19.70;75.80;;;;;;5107515;27;45670;-68
2023/10/23 03:44:40;;;;;;;1.27;1.27;;;19.70;75.60;;;;;;5103875;27;44459;-68
2023/10/23 03:47:09;;;;;;;1.20;1.20;;;19.70;75.50;;;;;;5109459;27;43337;-68
2023/10/23 03:49:37;;;;;;;1.20;1.20;;;19.70;75.50;;;;;;5108711;27;43590;-68
2023/10/23 03:52:06;;;;;;;1.57;1.57;;;19.60;75.50;;;;;;5109125;27;43838;-68
2023/10/23 03:54:34;;;;;;;1.33;1.33;;;19.60;76.10;;;;;;5110082;27;43449;-69
2023/10/23 03:57:02;;;;;;;1.20;1.20;;;19.60;76.10;;;;;;5108092;27;43419;-68
2023/10/23 03:59:30;;;;;;;1.10;1.10;;;19.60;75.90;;;;;;5109794;27;44061;-68
2023/10/23 04:01:59;;;;;;;1.20;1.20;;;19.60;75.80;;;;;;5109335;27;43677;-69
2023/10/23 04:04:27;;;;;;;1.20;1.20;;;19.50;75.90;;;;;;5109565;27;44197;-68
2023/10/23 04:06:59;;;;;;;1.30;1.30;;;19.50;76.30;;;;;;5109051;27;43339;-66
2023/10/23 04:09:31;;;;;;;1.20;1.20;;;19.50;76.30;;;;;;5102865;27;43426;-66
2023/10/23 04:11:59;;;;;;;1.37;1.37;;;19.60;76.00;;;;;;5103170;27;43618;-65
2023/10/23 04:14:27;;;;;;;1.20;1.20;;;19.70;75.50;;;;;;5110204;27;43353;-65
2023/10/23 04:16:55;;;;;;;1.23;1.23;;;19.90;75.10;;;;;;5109806;27;43443;-66
2023/10/23 04:19:26;;;;;;;1.10;1.10;;;19.90;74.80;;;;;;5110574;27;43427;-66
2023/10/23 04:21:54;;;;;;;1.20;1.20;;;19.90;74.70;;;;;;5108736;27;45705;-66
2023/10/23 04:24:22;;;;;;;1.20;1.20;;;19.90;74.70;;;;;;5109946;27;44596;-66
2023/10/23 04:26:51;;;;;;;1.10;1.10;;;19.80;74.90;;;;;;5105897;27;43566;-66
2023/10/23 04:29:20;;;;;;;1.20;1.20;;;19.70;75.30;;;;;;5110191;27;43458;-66
2023/10/23 04:31:48;;;;;;;1.03;1.03;;;19.70;75.70;;;;;;5109039;27;43804;-66
2023/10/23 04:34:16;;;;;;;1.10;1.10;;;19.70;75.60;;;;;;5109690;27;43373;-66
2023/10/23 04:36:46;;;;;;;1.27;1.27;;;19.60;75.40;;;;;;5102900;27;43456;-66
2023/10/23 04:39:14;;;;;;;1.20;1.20;;;19.60;75.50;;;;;;5104301;27;43584;-66
2023/10/23 04:41:42;;;;;;;0.93;0.93;;;19.60;75.70;;;;;;5109374;27;43618;-65
2023/10/23 04:44:10;;;;;;;1.00;1.00;;;19.50;76.20;;;;;;5109560;27;43352;-65
2023/10/23 04:46:38;;;;;;;1.30;1.30;;;19.60;76.10;;;;;;5109526;27;44460;-65
2023/10/23 04:49:06;;;;;;;1.00;1.00;;;19.50;75.80;;;;;;5110115;27;43953;-67
2023/10/23 04:51:34;;;;;;;0.90;0.90;;;19.50;76.50;;;;;;5110042;27;43622;-67
2023/10/23 04:54:04;;;;;;;1.20;1.20;;;19.50;75.80;;;;;;5107956;27;45276;-67
2023/10/23 04:56:32;;;;;;;1.03;1.03;;;19.50;76.20;;;;;;5109861;27;43307;-66
2023/10/23 04:59:00;;;;;;;1.10;1.10;;;19.50;76.50;;;;;;5110038;27;43421;-67
2023/10/23 05:01:28;;;;;;;1.00;1.00;;;19.60;76.10;;;;;;5108410;27;44050;-67
2023/10/23 05:03:56;;;;;;;1.17;1.17;;;19.70;75.60;;;;;;5108927;27;43389;-67
2023/10/23 05:06:27;;;;;;;1.10;1.10;;;19.80;75.10;;;;;;5109106;27;43488;-71
2023/10/23 05:08:55;;;;;;;1.10;1.10;;;19.90;74.80;;;;;;5109123;27;43415;-71
2023/10/23 05:11:24;;;;;;;1.10;1.10;;;19.90;74.60;;;;;;5108521;27;43607;-71
2023/10/23 05:13:52;;;;;;;1.00;1.00;;;19.90;74.70;;;;;;5108488;27;43910;-70
2023/10/23 05:16:20;;;;;;;1.00;1.00;;;19.80;74.80;;;;;;5109079;27;43409;-69
2023/10/23 05:18:49;;;;;;;1.10;1.10;;;19.70;75.00;;;;;;5109860;27;43449;-67
2023/10/23 05:21:17;;;;;;;1.03;1.03;;;19.70;75.70;;;;;;5109641;27;43583;-66
2023/10/23 05:23:45;;;;;;;1.10;1.10;;;19.70;75.90;;;;;;5108071;27;44404;-66
2023/10/23 05:26:14;;;;;;;1.00;1.00;;;19.60;75.50;;;;;;5109327;27;43368;-66
2023/10/23 05:28:44;;;;;;;1.00;1.00;;;19.60;75.60;;;;;;5109455;27;43526;-66
2023/10/23 05:31:12;;;;;;;1.30;1.30;;;19.50;75.60;;;;;;5107137;27;43672;-66
2023/10/23 05:33:40;;;;;;;1.23;1.23;;;19.50;75.80;;;;;;5108379;27;43484;-67
2023/10/23 05:36:09;;;;;;;0.97;0.97;;;19.50;76.30;;;;;;5109155;27;43488;-66
2023/10/23 05:38:38;;;;;;;1.00;1.00;;;19.50;76.10;;;;;;5106032;27;43505;-67
2023/10/23 05:41:07;;;;;;;1.00;1.00;;;19.50;75.90;;;;;;5105437;27;43723;-67
2023/10/23 05:43:36;;;;;;;1.00;1.00;;;19.50;75.90;;;;;;5105498;27;43460;-67
2023/10/23 05:46:05;;;;;;;1.20;1.20;;;19.50;76.00;;;;;;5107360;27;43320;-67
2023/10/23 05:48:36;;;;;;;1.03;1.03;;;19.40;76.40;;;;;;5135127;27;43493;-67
2023/10/23 05:51:05;;;;;;;1.00;1.00;;;19.50;76.40;;;;;;5107587;27;43855;-67
2023/10/23 05:53:33;;;;;;;1.03;1.03;;;19.60;76.00;;;;;;5108798;27;43465;-67
2023/10/23 05:56:03;;;;;;;1.00;1.00;;;19.70;75.40;;;;;;5106810;27;43996;-66
2023/10/23 05:58:31;;;;;;;1.00;1.00;;;19.80;75.00;;;;;;5109411;27;44014;-66
2023/10/23 06:01:05;;;;;;;0.90;0.90;;;19.80;74.70;;;;;;5108839;27;43705;-66
2023/10/23 06:03:34;;;;;;;1.00;1.00;;;19.80;74.70;;;;;;5108110;27;43430;-67
2023/10/23 06:06:03;;;;;;;1.00;1.00;;;19.80;74.80;;;;;;5108386;27;43458;-66
2023/10/23 06:08:31;;;;;;;1.00;1.00;;;19.70;75.00;;;;;;5105666;27;43501;-67
2023/10/23 06:10:59;;;;;;;0.90;0.90;;;19.60;75.60;;;;;;5107869;27;44163;-66
2023/10/23 06:13:27;;;;;;;1.10;1.10;;;19.60;75.60;;;;;;5109038;27;43472;-67
2023/10/23 06:15:57;;;;;;;0.97;0.97;;;19.60;75.40;;;;;;5106196;27;43513;-69
2023/10/23 06:18:27;;;;;;;0.90;0.90;;;19.60;75.40;;;;;;5105404;27;43869;-69
2023/10/23 06:20:58;;;;;;;1.00;1.00;;;19.50;75.50;;;;;;5104949;27;44059;-69
2023/10/23 06:23:26;;;;;;;1.10;1.10;;;19.50;76.10;;;;;;5108151;27;43444;-69
2023/10/23 06:25:57;;;;;;;0.90;0.90;;;19.50;75.90;;;;;;5106917;27;43414;-67
2023/10/23 06:28:25;;;;;;;1.00;1.00;;;19.60;75.50;;;;;;5108860;27;43340;-67
2023/10/23 06:30:53;;;;;;;1.00;1.00;;;19.70;75.30;;;;;;5108199;27;45663;-67
2023/10/23 06:33:21;;;;;;;1.10;1.10;;;19.70;75.10;;;;;;5107615;27;43474;-67
2023/10/23 06:35:58;;;;;;;0.80;0.80;;;19.70;75.30;;;;;;5107739;27;43541;-67
2023/10/23 06:38:26;;;;;;;0.80;0.80;;;19.70;75.30;;;;;;5108176;27;43799;-67
2023/10/23 06:40:54;;;;;;;0.80;0.80;;;19.70;75.30;;;;;;5107994;27;44013;-67
2023/10/23 06:43:22;;;;;;;0.93;0.93;;;19.60;75.20;;;;;;5106437;27;43373;-67
2023/10/23 06:45:50;;;;;;;1.00;1.00;;;19.60;75.20;;;;;;5107397;27;43476;-66
2023/10/23 06:48:29;;;;;;;1.00;1.00;;;19.50;75.60;;;;;;5108542;27;43323;-67
2023/10/23 06:50:59;;;;;;;0.90;0.90;;;19.50;75.90;;;;;;5109134;27;43847;-66
2023/10/23 06:53:27;;;;;;;0.90;0.90;;;19.50;75.70;;;;;;5105120;27;43432;-67
2023/10/23 06:55:56;;;;;;;0.97;0.97;;;19.50;75.60;;;;;;5108067;27;43407;-67
2023/10/23 06:58:24;;;;;;;0.90;0.90;;;19.50;75.60;;;;;;5106223;27;43458;-66
2023/10/23 07:00:52;;;;;;;0.90;0.90;;;19.40;76.70;;;;;;5105886;27;43695;-66
2023/10/23 07:03:20;;;;;;;1.00;1.00;;;19.40;76.20;;;;;;5105129;27;43387;-67
2023/10/23 07:05:49;;;;;;;0.90;0.90;;;19.50;75.90;;;;;;5108670;27;43442;-66
2023/10/23 07:08:19;;;;;;;1.10;1.10;;;19.60;75.50;;;;;;5112478;27;43399;-66
2023/10/23 07:10:47;;;;;;;0.80;0.80;;;19.70;75.30;;;;;;5108527;27;43997;-68
2023/10/23 07:13:16;;;;;;;0.70;0.70;;;19.70;75.20;;;;;;5111800;27;43427;-67
2023/10/23 07:15:49;;;;;;;0.90;0.90;;;19.60;75.40;;;;;;5109136;27;43389;-66
2023/10/23 07:18:18;;;;;;;0.80;0.80;;;19.60;75.30;;;;;;5111514;27;43371;-67
2023/10/23 07:20:53;;;;;;;0.90;0.90;;;19.60;75.20;;;;;;5110100;27;43992;-67
2023/10/23 07:23:23;;;;;;;0.90;0.90;;;19.70;75.30;;;;;;5110103;27;43431;-67
2023/10/23 07:26:03;;;;;;;0.80;0.80;;;19.60;75.30;;;;;;5110416;27;43426;-69
2023/10/23 07:28:31;;;;;;;0.90;0.90;;;19.50;75.70;;;;;;5111382;27;43622;-69
2023/10/23 07:31:02;;;;;;;1.00;1.00;;;19.50;75.90;;;;;;5109234;27;43856;-70
2023/10/23 07:33:31;;;;;;;0.87;0.87;;;19.50;75.60;;;;;;5108835;27;43541;-69
2023/10/23 07:36:03;;;;;;;0.80;0.80;;;19.50;75.60;;;;;;5106125;27;44057;-67
2023/10/23 07:38:33;;;;;;;0.77;0.77;;;19.50;75.70;;;;;;5109123;27;43536;-66
2023/10/23 07:41:01;;;;;;;0.90;0.90;;;19.40;75.90;;;;;;5111155;27;43923;-66
2023/10/23 07:43:29;;;;;;;0.80;0.80;;;19.40;76.20;;;;;;5110195;27;43299;-67
2023/10/23 07:45:57;;;;;;;0.93;0.93;;;19.50;76.70;;;;;;5105690;27;43925;-67
2023/10/23 07:48:29;;;;;;;1.00;1.00;;;19.60;75.40;;;;;;5107756;27;43410;-67
2023/10/23 07:50:58;;;;;;;1.00;1.00;;;19.70;75.30;;;;;;5104114;27;43614;-67
2023/10/23 07:53:26;;;;;;;0.90;0.90;;;19.70;75.10;;;;;;5105644;27;44108;-66
2023/10/23 07:55:55;;;;;;;0.97;0.97;;;19.70;75.30;;;;;;5105021;27;43292;-66
2023/10/23 07:58:23;;;;;;;0.80;0.80;;;19.60;75.30;;;;;;5110836;27;43391;-66
2023/10/23 08:00:53;;;;;;;0.90;0.90;;;19.60;75.30;;;;;;5110427;27;44052;-66
2023/10/23 08:03:22;;;;;;;1.00;1.00;;;19.70;75.30;;;;;;5110121;27;43460;-66
2023/10/23 08:05:51;;;;;;;0.80;0.80;;;19.60;75.30;;;;;;5110420;27;43432;-66
2023/10/23 08:08:19;;;;;;;1.00;1.00;;;19.50;75.40;;;;;;5109929;27;43357;-66
2023/10/23 08:10:47;;;;;;;0.93;0.93;;;19.50;75.90;;;;;;5105246;27;46022;-67
2023/10/23 08:13:16;;;;;;;0.80;0.80;;;19.50;75.90;;;;;;5108094;27;43332;-68
2023/10/23 08:15:44;;;;;;;0.70;0.70;;;19.50;75.80;;;;;;5109792;27;43391;-67
2023/10/23 08:18:12;;;;;;;1.00;1.00;;;19.50;75.80;;;;;;5110627;27;43991;-67
2023/10/23 08:21:01;;;;;;;0.80;0.80;;;19.40;75.80;;;;;;5103915;27;43848;-67
2023/10/23 08:23:29;;;;;;;1.00;1.00;;;19.40;76.40;;;;;;5105841;27;43735;-67
2023/10/23 08:25:57;;;;;;;0.90;0.90;;;19.50;76.20;;;;;;5105407;27;43432;-66
2023/10/23 08:28:26;;;;;;;0.90;0.90;;;19.50;75.70;;;;;;5110477;27;43469;-67
2023/10/23 08:31:05;;;;;;;0.77;0.77;;;19.60;75.40;;;;;;5109668;27;43963;-66
2023/10/23 08:33:43;;;;;;;0.87;0.87;;;19.60;75.30;;;;;;5108444;27;44705;-66
2023/10/23 08:36:12;;;;;;;0.90;0.90;;;19.60;75.60;;;;;;5109533;27;43393;-70
2023/10/23 08:38:40;;;;;;;0.70;0.70;;;19.60;75.80;;;;;;5109592;27;43944;-70
2023/10/23 08:41:08;;;;;;;0.80;0.80;;;19.60;75.60;;;;;;5109187;27;43802;-70
2023/10/23 08:43:37;;;;;;;1.00;1.00;;;19.60;75.40;;;;;;5109118;27;43541;-70
2023/10/23 08:46:08;;;;;;;0.87;0.87;;;19.50;75.40;;;;;;5109272;27;44048;-66
2023/10/23 08:48:37;;;;;;;1.87;1.20;;;19.50;75.60;;;;;;5109224;27;43509;-66
2023/10/23 08:51:05;;;;;;;3.53;1.43;;;19.40;76.20;;;;;;5109067;27;43626;-67
2023/10/23 08:53:34;;;;;;;1.97;1.63;;;19.50;76.10;;;;;;5109897;27;43463;-67
2023/10/23 08:56:04;;;;;;;1.70;1.60;;;19.50;75.80;;;;;;5110436;27;43376;-66
2023/10/23 08:58:33;;;;;;;1.63;1.53;;;19.60;76.30;;;;;;5110171;27;43913;-66
2023/10/23 09:01:03;;;;;;;2.37;1.93;;;19.60;75.40;;;;;;5109528;27;43617;-66
2023/10/23 09:03:32;;;;;;;2.90;2.10;;;19.60;75.70;;;;;;5109473;27;43349;-66
2023/10/23 09:06:20;;;;;;;2.13;1.90;;;19.60;75.80;;;;;;5102607;27;43413;-66
2023/10/23 09:08:48;;;;;;;3.70;2.00;;;19.50;76.20;;;;;;5105481;27;43385;-67
2023/10/23 09:11:16;;;;;;;2.43;2.23;;;19.50;75.50;;;;;;5108542;27;43632;-66
2023/10/23 09:13:44;;;;;;;4.00;2.10;;;19.50;75.60;;;;;;5109390;27;43442;-66
2023/10/23 09:16:13;;;;;;;3.90;2.70;;;19.40;75.70;;;;;;5109782;27;43439;-66
2023/10/23 09:18:45;;;;;;;4.37;2.47;;;19.40;76.20;;;;;;5113304;27;43372;-66
2023/10/23 09:21:15;;;;;;;5.87;3.20;;;19.50;76.00;;;;;;5116050;27;44012;-66
2023/10/23 09:23:50;;;;;;;3.50;2.77;;;19.60;75.70;;;;;;5114738;27;43383;-66
2023/10/23 09:26:18;;;;;;;3.77;2.63;;;19.60;75.40;;;;;;5113381;27;43435;-66
2023/10/23 09:28:47;;;;;;;6.00;3.00;;;19.60;75.30;;;;;;5116531;27;43446;-67
2023/10/23 09:31:16;;;;;;;5.37;2.90;;;19.60;75.80;;;;;;5114369;27;46013;-64
2023/10/23 09:33:44;;;;;;;3.57;2.73;;;19.60;75.70;;;;;;5115548;27;43399;-66
2023/10/23 09:36:13;;;;;;;2.83;2.63;;;19.50;75.40;;;;;;5116127;27;43434;-66
2023/10/23 09:38:42;;;;;;;2.53;2.33;;;19.60;75.40;;;;;;5114990;27;43423;-66
2023/10/23 09:41:10;;;;;;;4.97;3.20;;;19.50;75.50;;;;;;5115565;27;43610;-66
2023/10/23 09:43:44;;;;;;;3.33;3.00;;;19.40;75.80;;;;;;5115858;27;43894;-66
2023/10/23 09:46:13;;;;;;;3.60;2.70;;;19.40;76.10;;;;;;5115714;27;43424;-69
2023/10/23 09:48:43;;;;;;;3.57;2.40;;;19.40;75.90;;;;;;5115313;27;43875;-69
2023/10/23 09:51:14;;;;;;;2.90;2.70;;;19.40;75.80;;;;;;5115035;27;43954;-69
2023/10/23 09:53:44;;;;;;;3.33;2.90;;;19.40;75.90;;;;;;5115028;27;43381;-68
2023/10/23 09:56:15;;;;;;;3.50;2.83;;;19.40;76.20;;;;;;5115759;27;43405;-66
2023/10/23 09:58:43;;;;;;;3.73;3.03;;;19.40;76.60;;;;;;5114670;27;43462;-66
2023/10/23 10:01:11;;;;;;;3.43;2.90;;;19.40;76.20;;;;;;5115612;27;44006;-66
2023/10/23 10:03:40;;;;;;;2.87;2.63;;;19.50;75.80;;;;;;5115409;27;43869;-66
2023/10/23 10:06:13;;;;;;;2.67;2.47;;;19.60;75.50;;;;;;5109230;27;43439;-67
2023/10/23 10:08:42;;;;;;;2.70;2.50;;;19.60;75.40;;;;;;5113308;27;43450;-66
2023/10/23 10:11:10;;;;;;;2.87;2.57;;;19.60;75.80;;;;;;5115466;27;43618;-67
2023/10/23 10:13:38;;;;;;;3.70;2.50;;;19.60;75.70;;;;;;5114648;27;43783;-66
2023/10/23 10:16:07;;;;;;;3.27;2.90;;;19.60;75.60;;;;;;5115499;27;43352;-66
2023/10/23 10:18:35;;;;;;;3.50;2.77;;;19.50;75.40;;;;;;5110416;27;43443;-66
2023/10/23 10:21:05;;;;;;;4.03;3.10;;;19.50;75.50;;;;;;5115618;27;43619;-66
2023/10/23 10:23:35;;;;;;;3.43;2.60;;;19.40;75.90;;;;;;5115444;27;43328;-66
2023/10/23 10:26:03;;;;;;;4.50;2.63;;;19.40;76.10;;;;;;5115952;27;43401;-66
2023/10/23 10:28:32;;;;;;;2.63;2.33;;;19.40;75.90;;;;;;5115915;27;43381;-66
2023/10/23 10:31:00;;;;;;;3.70;2.70;;;19.40;75.90;;;;;;5111481;27;43695;-66
2023/10/23 10:33:29;;;;;;;2.80;2.60;;;19.40;75.90;;;;;;5111713;27;43409;-66
2023/10/23 10:36:17;;;;;;;2.73;2.40;;;19.30;77.00;;;;;;5109669;27;43360;-66
2023/10/23 10:39:06;;;;;;;2.90;2.63;;;19.30;76.30;;;;;;5112496;27;43524;-66
2023/10/23 10:41:35;;;;;;;2.73;2.53;;;19.40;76.20;;;;;;5104288;27;45710;-66
2023/10/23 10:44:04;;;;;;;2.50;2.30;;;19.30;76.10;;;;;;5110719;27;44690;-65
2023/10/23 10:46:32;;;;;;;4.23;2.87;;;19.30;76.10;;;;;;5111554;27;43410;-65
2023/10/23 10:49:00;;;;;;;3.13;2.70;;;19.30;76.60;;;;;;5111747;27;43407;-66
2023/10/23 10:51:29;;;;;;;3.43;2.60;;;19.30;76.60;;;;;;5111363;27;43896;-66
2023/10/23 10:54:00;;;;;;;3.10;2.77;;;19.50;76.30;;;;;;5111385;27;43935;-66
2023/10/23 10:56:29;;;;;;;3.73;2.70;;;19.60;75.80;;;;;;5112334;27;43371;-68
2023/10/23 10:58:59;;;;;;;4.00;2.77;;;19.70;75.20;;;;;;5112045;27;43359;-70
2023/10/23 11:01:27;;;;;;;2.67;2.30;;;19.80;75.00;;;;;;5109879;27;43598;-69
2023/10/23 11:03:56;;;;;;;3.27;2.57;;;19.80;74.80;;;;;;5111402;27;43406;-69
2023/10/23 11:06:24;;;;;;;2.73;2.47;;;19.70;74.90;;;;;;5112286;27;43347;-69
2023/10/23 11:08:54;;;;;;;3.20;2.50;;;19.60;75.00;;;;;;5112081;27;43405;-69
2023/10/23 11:11:22;;;;;;;3.47;2.63;;;19.50;75.50;;;;;;5109622;27;45679;-68
2023/10/23 11:13:52;;;;;;;3.03;2.63;;;19.50;75.80;;;;;;5111766;27;43452;-69
2023/10/23 11:16:20;;;;;;;4.03;2.73;;;19.50;75.70;;;;;;5109587;27;43425;-69
2023/10/23 11:18:48;;;;;;;2.50;2.30;;;19.50;75.70;;;;;;5111652;27;43437;-69
2023/10/23 11:21:22;;;;;;;3.23;2.97;;;19.40;75.70;;;;;;5111871;27;43566;-68
2023/10/23 11:23:50;;;;;;;3.00;2.70;;;19.40;75.90;;;;;;5110939;27;43409;-68
2023/10/23 11:26:18;;;;;;;2.57;2.47;;;19.30;76.40;;;;;;5110389;27;44002;-68
2023/10/23 11:28:46;;;;;;;2.57;2.37;;;19.30;76.20;;;;;;5111923;27;43489;-68
2023/10/23 11:31:15;;;;;;;3.07;2.70;;;19.40;76.10;;;;;;5109860;27;45736;-69
2023/10/23 11:33:44;;;;;;;2.83;2.63;;;19.30;76.10;;;;;;5110855;27;43379;-69
2023/10/23 11:36:14;;;;;;;2.70;2.50;;;19.30;76.20;;;;;;5110799;27;43482;-69
2023/10/23 11:38:42;;;;;;;2.80;2.60;;;19.30;76.50;;;;;;5111723;27;43439;-69
2023/10/23 11:41:10;;;;;;;2.80;2.60;;;19.30;76.70;;;;;;5110052;27;43577;-69
2023/10/23 11:43:39;;;;;;;2.90;2.70;;;19.40;76.30;;;;;;5111562;27;43410;-68
2023/10/23 11:46:07;;;;;;;2.70;2.50;;;19.50;75.90;;;;;;5111062;27;43369;-69
2023/10/23 11:48:37;;;;;;;2.57;2.33;;;19.50;75.60;;;;;;5110171;27;43458;-69
2023/10/23 11:51:05;;;;;;;2.63;2.43;;;19.50;75.50;;;;;;5111493;27;43630;-69
2023/10/23 11:53:33;;;;;;;3.03;2.80;;;19.50;76.00;;;;;;5110835;27;43422;-69
2023/10/23 11:56:03;;;;;;;2.57;2.37;;;19.50;75.90;;;;;;5110559;27;43861;-69
2023/10/23 11:58:31;;;;;;;2.60;2.40;;;19.50;75.90;;;;;;5111626;27;43357;-69
2023/10/23 12:00:59;;;;;;;2.60;2.40;;;19.50;75.80;;;;;;5110757;27;43640;-69
2023/10/23 12:03:27;;;;;;;2.70;2.50;;;19.40;75.80;;;;;;5110728;27;43504;-69
2023/10/23 12:05:56;;;;;;;2.33;2.23;;;19.40;76.30;;;;;;5110201;27;43339;-69
2023/10/23 12:08:24;;;;;;;2.33;2.23;;;19.40;76.40;;;;;;5109752;27;43373;-69
2023/10/23 12:10:52;;;;;;;2.53;2.33;;;19.40;76.20;;;;;;5107328;27;43614;-69
2023/10/23 12:13:20;;;;;;;2.13;2.00;;;19.40;76.20;;;;;;5105231;27;43392;-69
2023/10/23 12:15:48;;;;;;;2.70;2.60;;;19.40;76.30;;;;;;5107578;27;43770;-67
2023/10/23 12:18:17;;;;;;;2.57;2.40;;;19.30;76.30;;;;;;5108899;27;43414;-67
2023/10/23 12:20:45;;;;;;;2.80;2.53;;;19.30;76.80;;;;;;5108348;27;43613;-66
2023/10/23 12:23:14;;;;;;;3.30;2.40;;;19.30;76.50;;;;;;5103514;27;45353;-67
2023/10/23 12:25:42;;;;;;;2.70;2.50;;;19.50;76.20;;;;;;5104748;27;43437;-66
2023/10/23 12:28:10;;;;;;;2.23;2.13;;;19.60;75.80;;;;;;5107261;27;43803;-67
2023/10/23 12:30:38;;;;;;;2.63;2.43;;;19.70;75.40;;;;;;5108539;27;43908;-67
2023/10/23 12:33:06;;;;;;;2.90;2.80;;;19.70;75.20;;;;;;5105183;27;44077;-67
2023/10/23 12:35:52;;;;;;;2.70;2.50;;;19.60;75.10;;;;;;5118579;27;43462;-67
2023/10/23 12:38:21;;;;;;;2.30;2.20;;;19.60;75.40;;;;;;5105280;27;43631;-66
2023/10/23 12:40:49;;;;;;;2.70;2.50;;;19.50;75.50;;;;;;5116779;27;45728;-66
2023/10/23 12:43:18;;;;;;;2.53;2.33;;;19.50;76.20;;;;;;5104496;27;43450;-66
2023/10/23 12:45:46;;;;;;;2.60;2.40;;;19.40;76.10;;;;;;5107820;27;43373;-66
2023/10/23 12:48:14;;;;;;;2.10;2.00;;;19.40;75.90;;;;;;5105308;27;43839;-67
2023/10/23 12:50:42;;;;;;;2.43;2.33;;;19.40;76.00;;;;;;5103879;27;43742;-66
2023/10/23 12:53:11;;;;;;;2.30;2.20;;;19.30;76.10;;;;;;5104505;27;43487;-66
2023/10/23 12:55:42;;;;;;;2.73;2.53;;;19.30;76.50;;;;;;5108167;27;43393;-66
2023/10/23 12:58:10;;;;;;;2.53;2.37;;;19.40;77.50;;;;;;5105385;27;43419;-66